createdAt,value
2022-09-24T00:00:04.167Z,6.37
2022-09-24T00:02:36.648Z,6.35
2022-09-24T00:05:10.498Z,6.31
2022-09-24T00:07:42.938Z,6.29
2022-09-24T00:10:15.139Z,6.28
2022-09-24T00:12:48.369Z,6.23
2022-09-24T00:15:21.227Z,6.19
2022-09-24T00:17:53.588Z,6.14
2022-09-24T00:20:25.859Z,6.11
2022-09-24T00:22:58.369Z,6.08
2022-09-24T00:25:47.510Z,6.07
2022-09-24T00:28:19.853Z,6.04
2022-09-24T00:30:52.802Z,6.03
2022-09-24T00:33:25.388Z,6.00
2022-09-24T00:36:03.531Z,5.97
2022-09-24T00:38:36.308Z,5.98
2022-09-24T00:41:08.626Z,5.99
2022-09-24T00:43:41.610Z,6.00
2022-09-24T00:46:21.151Z,6.01
2022-09-24T00:48:56.185Z,6.01
2022-09-24T00:51:31.870Z,6.02
2022-09-24T00:54:06.621Z,6.04
2022-09-24T00:56:42.731Z,6.04
2022-09-24T00:59:18.580Z,6.04
2022-09-24T01:01:52.495Z,6.06
2022-09-24T01:04:25.839Z,6.05
2022-09-24T01:07:00.448Z,6.05
2022-09-24T01:09:33.231Z,6.05
2022-09-24T01:12:14.799Z,6.06
2022-09-24T01:15:04.288Z,6.04
2022-09-24T01:17:44.622Z,6.06
2022-09-24T01:20:58.037Z,6.06
2022-09-24T01:23:49.156Z,6.05
2022-09-24T01:26:39.839Z,6.06
2022-09-24T01:29:53.530Z,6.07
2022-09-24T01:32:33.730Z,6.06
2022-09-24T01:35:13.640Z,6.08
2022-09-24T01:37:52.320Z,6.08
2022-09-24T01:40:29.154Z,6.04
2022-09-24T01:43:05.510Z,6.01
2022-09-24T01:45:40.409Z,5.98
2022-09-24T01:48:13.009Z,5.98
2022-09-24T01:50:51.828Z,5.97
2022-09-24T01:53:28.924Z,5.96
2022-09-24T01:56:05.438Z,5.96
2022-09-24T01:58:42.128Z,5.95
2022-09-24T02:01:19.034Z,5.97
2022-09-24T02:03:57.628Z,5.97
2022-09-24T02:06:36.734Z,5.97
2022-09-24T02:09:22.280Z,5.96
2022-09-24T02:11:55.410Z,5.95
2022-09-24T02:14:29.129Z,5.93
2022-09-24T02:17:04.967Z,5.88
2022-09-24T02:19:40.358Z,5.87
2022-09-24T02:22:15.386Z,5.85
2022-09-24T02:24:51.563Z,5.82
2022-09-24T02:27:25.449Z,5.77
2022-09-24T02:29:57.929Z,5.73
2022-09-24T02:32:33.287Z,5.73
2022-09-24T02:35:11.192Z,5.71
2022-09-24T02:37:45.110Z,5.67
2022-09-24T02:40:18.073Z,5.65
2022-09-24T02:42:50.538Z,5.61
2022-09-24T02:45:22.677Z,5.53
2022-09-24T02:47:54.872Z,5.45
2022-09-24T02:50:26.956Z,5.39
2022-09-24T02:52:59.625Z,5.32
2022-09-24T02:55:33.968Z,5.30
2022-09-24T02:58:06.448Z,5.28
2022-09-24T03:00:39.136Z,5.30
2022-09-24T03:03:11.424Z,5.31
2022-09-24T03:05:43.706Z,5.32
2022-09-24T03:08:16.086Z,5.34
2022-09-24T03:10:48.440Z,5.34
2022-09-24T03:13:20.807Z,5.34
2022-09-24T03:15:53.007Z,5.32
2022-09-24T03:18:25.482Z,5.29
2022-09-24T03:21:02.690Z,5.26
2022-09-24T03:23:38.531Z,5.21
2022-09-24T03:26:11.000Z,5.17
2022-09-24T03:28:43.331Z,5.17
2022-09-24T03:31:16.004Z,5.17
2022-09-24T03:33:50.503Z,5.14
2022-09-24T03:36:25.193Z,5.16
2022-09-24T03:39:00.060Z,5.16
2022-09-24T03:41:32.139Z,5.14
2022-09-24T03:44:05.700Z,5.12
2022-09-24T03:46:38.199Z,5.10
2022-09-24T03:49:10.588Z,5.08
2022-09-24T03:51:42.709Z,5.05
2022-09-24T03:54:15.214Z,5.01
2022-09-24T03:56:47.607Z,4.99
2022-09-24T03:59:20.009Z,4.97
2022-09-24T04:01:52.539Z,4.93
2022-09-24T04:04:25.028Z,4.91
2022-09-24T04:06:57.122Z,4.90
2022-09-24T04:09:29.734Z,4.89
2022-09-24T04:12:01.875Z,4.84
2022-09-24T04:14:34.179Z,4.84
2022-09-24T04:17:07.379Z,4.85
2022-09-24T04:19:40.174Z,4.83
2022-09-24T04:22:12.339Z,4.80
2022-09-24T04:24:45.059Z,4.75
2022-09-24T04:27:17.807Z,4.73
2022-09-24T04:29:54.573Z,4.72
2022-09-24T04:32:26.751Z,4.71
2022-09-24T04:35:01.063Z,4.73
2022-09-24T04:37:35.170Z,4.75
2022-09-24T04:40:13.734Z,4.74
2022-09-24T04:42:47.731Z,4.73
2022-09-24T04:45:21.526Z,4.73
2022-09-24T04:47:53.772Z,4.76
2022-09-24T04:50:26.813Z,4.74
2022-09-24T04:52:59.151Z,4.80
2022-09-24T04:55:33.718Z,4.83
2022-09-24T04:58:06.839Z,4.86
2022-09-24T05:00:39.073Z,4.88
2022-09-24T05:03:11.331Z,4.92
2022-09-24T05:05:43.756Z,4.99
2022-09-24T05:08:15.849Z,5.06
2022-09-24T05:10:48.363Z,5.14
2022-09-24T05:13:20.459Z,5.24
2022-09-24T05:15:55.675Z,5.34
2022-09-24T05:18:28.192Z,5.42
2022-09-24T05:21:00.420Z,5.48
2022-09-24T05:23:33.056Z,5.52
2022-09-24T05:26:22.792Z,5.57
2022-09-24T05:29:01.484Z,5.62
2022-09-24T05:31:33.974Z,5.67
2022-09-24T05:34:06.268Z,5.72
2022-09-24T05:36:38.785Z,5.80
2022-09-24T05:39:13.228Z,5.88
2022-09-24T05:41:45.560Z,5.94
2022-09-24T05:44:20.241Z,5.99
2022-09-24T05:46:53.868Z,6.05
2022-09-24T05:49:26.599Z,6.12
2022-09-24T05:51:59.330Z,6.19
2022-09-24T05:54:33.688Z,6.30
2022-09-24T05:57:08.980Z,6.47
2022-09-24T05:59:44.188Z,6.64
2022-09-24T06:02:17.039Z,6.83
2022-09-24T06:04:49.490Z,7.05
2022-09-24T06:07:22.110Z,7.33
2022-09-24T06:09:55.624Z,7.63
2022-09-24T06:12:30.048Z,7.87
2022-09-24T06:15:02.427Z,8.07
2022-09-24T06:17:35.289Z,8.28
2022-09-24T06:20:10.820Z,8.40
2022-09-24T06:22:43.800Z,8.61
2022-09-24T06:25:16.760Z,8.74
2022-09-24T06:27:54.610Z,8.99
2022-09-24T06:30:27.265Z,9.24
2022-09-24T06:33:06.132Z,9.47
2022-09-24T06:35:39.162Z,9.74
2022-09-24T06:38:17.461Z,9.86
2022-09-24T06:40:50.197Z,10.01
2022-09-24T06:43:22.710Z,10.21
2022-09-24T06:45:58.075Z,10.11
2022-09-24T06:48:32.731Z,10.22
2022-09-24T06:51:08.288Z,10.42
2022-09-24T06:53:43.931Z,10.45
2022-09-24T06:56:16.659Z,10.42
2022-09-24T06:58:48.904Z,10.46
2022-09-24T07:01:21.117Z,10.37
2022-09-24T07:03:53.458Z,10.51
2022-09-24T07:06:25.783Z,10.48
2022-09-24T07:08:58.526Z,10.53
2022-09-24T07:11:31.058Z,10.62
2022-09-24T07:14:03.701Z,10.77
2022-09-24T07:16:38.626Z,10.83
2022-09-24T07:19:14.028Z,11.04
2022-09-24T07:21:46.091Z,11.25
2022-09-24T07:24:19.290Z,11.38
2022-09-24T07:26:51.498Z,11.50
2022-09-24T07:29:24.295Z,11.69
2022-09-24T07:31:58.330Z,11.76
2022-09-24T07:34:30.770Z,11.74
2022-09-24T07:37:03.086Z,11.71
2022-09-24T07:39:36.490Z,11.50
2022-09-24T07:42:11.630Z,11.52
2022-09-24T07:44:43.948Z,11.58
2022-09-24T07:47:16.830Z,11.45
2022-09-24T07:49:49.567Z,11.37
2022-09-24T07:52:22.063Z,11.43
2022-09-24T07:54:54.656Z,11.55
2022-09-24T07:57:29.689Z,11.66
2022-09-24T08:00:02.508Z,11.87
2022-09-24T08:02:43.701Z,12.09
2022-09-24T08:05:17.081Z,12.12
2022-09-24T08:07:54.584Z,12.04
2022-09-24T08:10:28.964Z,11.91
2022-09-24T08:13:04.471Z,11.99
2022-09-24T08:15:36.840Z,12.23
2022-09-24T08:18:10.120Z,12.33
2022-09-24T08:20:42.981Z,12.24
2022-09-24T08:23:15.030Z,12.19
2022-09-24T08:25:47.598Z,12.23
2022-09-24T08:28:20.118Z,12.38
2022-09-24T08:30:52.574Z,12.47
2022-09-24T08:33:24.911Z,12.58
2022-09-24T08:36:00.882Z,12.67
2022-09-24T08:38:33.188Z,12.86
2022-09-24T08:41:17.611Z,12.86
2022-09-24T08:43:59.328Z,12.92
2022-09-24T08:46:53.634Z,12.84
2022-09-24T08:49:32.808Z,12.88
2022-09-24T08:52:28.370Z,12.84
2022-09-24T08:55:07.486Z,12.91
2022-09-24T08:57:47.822Z,12.83
2022-09-24T09:00:20.286Z,12.81
2022-09-24T09:03:00.712Z,12.87
2022-09-24T09:05:51.478Z,12.90
2022-09-24T09:08:55.006Z,12.92
2022-09-24T09:11:30.882Z,12.93
2022-09-24T09:14:09.388Z,13.06
2022-09-24T09:16:48.390Z,13.09
2022-09-24T09:19:24.829Z,13.11
2022-09-24T09:22:02.548Z,13.24
2022-09-24T09:24:43.749Z,13.06
2022-09-24T09:27:17.415Z,13.08
2022-09-24T09:29:53.760Z,13.18
2022-09-24T09:32:43.319Z,13.32
2022-09-24T09:35:20.923Z,13.30
2022-09-24T09:38:01.551Z,13.63
2022-09-24T09:40:43.225Z,13.74
2022-09-24T09:43:16.280Z,13.72
2022-09-24T09:46:00.965Z,13.68
2022-09-24T09:48:45.441Z,13.81
2022-09-24T09:51:23.004Z,13.69
2022-09-24T09:54:02.702Z,13.65
2022-09-24T09:56:38.690Z,13.85
2022-09-24T09:59:28.783Z,13.75
2022-09-24T10:02:02.195Z,13.87
2022-09-24T10:04:42.049Z,14.10
2022-09-24T10:07:16.749Z,14.08
2022-09-24T10:09:59.668Z,14.22
2022-09-24T10:12:32.148Z,14.33
2022-09-24T10:15:14.169Z,14.21
2022-09-24T10:17:48.613Z,14.37
2022-09-24T10:20:23.841Z,14.37
2022-09-24T10:23:01.171Z,14.20
2022-09-24T10:25:36.646Z,14.10
2022-09-24T10:28:24.663Z,14.09
2022-09-24T10:30:59.845Z,14.21
2022-09-24T10:33:40.729Z,14.20
2022-09-24T10:36:21.559Z,13.82
2022-09-24T10:39:06.499Z,13.82
2022-09-24T10:41:38.869Z,13.97
2022-09-24T10:44:13.908Z,14.02
2022-09-24T10:47:27.590Z,13.95
2022-09-24T10:50:12.669Z,13.97
2022-09-24T10:52:50.320Z,14.05
2022-09-24T10:55:46.647Z,13.96
2022-09-24T10:58:35.869Z,14.09
2022-09-24T11:01:19.731Z,14.24
2022-09-24T11:04:21.942Z,14.31
2022-09-24T11:07:11.287Z,14.34
2022-09-24T11:09:50.090Z,14.44
2022-09-24T11:12:37.111Z,14.39
2022-09-24T11:15:26.544Z,14.44
2022-09-24T11:18:11.775Z,14.40
2022-09-24T11:20:52.193Z,14.33
2022-09-24T11:23:40.903Z,14.38
2022-09-24T11:26:21.649Z,14.36
2022-09-24T11:29:11.478Z,14.46
2022-09-24T11:31:50.934Z,14.35
2022-09-24T11:34:44.529Z,14.38
2022-09-24T11:37:36.496Z,14.54
2022-09-24T11:40:23.687Z,14.48
2022-09-24T11:43:09.617Z,14.45
2022-09-24T11:46:13.630Z,14.60
2022-09-24T11:49:20.633Z,14.56
2022-09-24T11:52:02.030Z,14.43
2022-09-24T11:54:39.440Z,14.29
2022-09-24T11:57:18.480Z,14.21
2022-09-24T11:59:58.020Z,14.24
2022-09-24T12:02:38.561Z,14.20
2022-09-24T12:05:16.812Z,14.41
2022-09-24T12:07:54.769Z,14.52
2022-09-24T12:10:35.580Z,14.46
2022-09-24T12:13:18.859Z,14.40
2022-09-24T12:16:00.486Z,14.45
2022-09-24T12:18:36.991Z,14.53
2022-09-24T12:21:13.547Z,14.61
2022-09-24T12:23:49.498Z,14.59
2022-09-24T12:26:25.600Z,14.51
2022-09-24T12:29:21.280Z,14.51
2022-09-24T12:32:31.098Z,14.62
2022-09-24T12:35:13.271Z,14.66
2022-09-24T12:37:49.830Z,14.75
2022-09-24T12:40:43.939Z,14.79
2022-09-24T12:43:25.552Z,14.70
2022-09-24T12:46:06.541Z,14.83
2022-09-24T12:48:42.596Z,14.79
2022-09-24T12:51:16.979Z,14.77
2022-09-24T12:53:59.841Z,14.76
2022-09-24T12:56:36.144Z,14.74
2022-09-24T12:59:25.398Z,14.74
2022-09-24T13:02:08.571Z,14.80
2022-09-24T13:04:45.650Z,14.86
2022-09-24T13:07:38.838Z,14.78
2022-09-24T13:10:26.450Z,14.71
2022-09-24T13:13:00.300Z,14.85
2022-09-24T13:15:38.967Z,14.84
2022-09-24T13:18:26.685Z,14.88
2022-09-24T13:21:05.786Z,14.90
2022-09-24T13:23:51.680Z,14.93
2022-09-24T13:26:39.353Z,14.97
2022-09-24T13:29:26.699Z,14.92
2022-09-24T13:32:05.359Z,14.87
2022-09-24T13:34:38.295Z,15.01
2022-09-24T13:37:21.829Z,15.12
2022-09-24T13:39:54.890Z,15.11
2022-09-24T13:42:33.631Z,14.94
2022-09-24T13:45:15.032Z,14.95
2022-09-24T13:47:51.362Z,15.01
2022-09-24T13:50:27.542Z,15.14
2022-09-24T13:53:02.539Z,15.08
2022-09-24T13:55:41.224Z,15.14
2022-09-24T13:58:29.772Z,15.24
2022-09-24T14:01:08.699Z,15.25
2022-09-24T14:03:42.987Z,15.01
2022-09-24T14:06:18.271Z,15.18
2022-09-24T14:08:51.869Z,15.27
2022-09-24T14:11:29.590Z,15.16
2022-09-24T14:14:18.651Z,15.22
2022-09-24T14:16:55.558Z,15.36
2022-09-24T14:19:28.112Z,15.33
2022-09-24T14:22:02.660Z,15.46
2022-09-24T14:24:41.722Z,15.47
2022-09-24T14:27:18.016Z,15.55
2022-09-24T14:29:55.191Z,15.59
2022-09-24T14:32:31.577Z,15.60
2022-09-24T14:35:07.294Z,15.57
2022-09-24T14:37:47.508Z,15.53
2022-09-24T14:40:21.842Z,15.50
2022-09-24T14:43:01.204Z,15.42
2022-09-24T14:45:38.119Z,15.46
2022-09-24T14:48:26.329Z,15.64
2022-09-24T14:50:59.019Z,15.71
2022-09-24T14:53:35.060Z,15.80
2022-09-24T14:56:22.979Z,15.88
2022-09-24T14:58:55.370Z,15.80
2022-09-24T15:01:32.772Z,15.47
2022-09-24T15:04:09.553Z,15.50
2022-09-24T15:06:48.380Z,15.50
2022-09-24T15:09:30.478Z,15.47
2022-09-24T15:12:19.219Z,15.48
2022-09-24T15:15:00.242Z,15.34
2022-09-24T15:17:36.330Z,15.21
2022-09-24T15:20:10.922Z,15.16
2022-09-24T15:22:43.175Z,15.06
2022-09-24T15:25:16.860Z,14.88
2022-09-24T15:27:53.008Z,14.90
2022-09-24T15:30:25.504Z,14.79
2022-09-24T15:32:59.461Z,14.66
2022-09-24T15:35:31.676Z,14.61
2022-09-24T15:38:03.878Z,14.49
2022-09-24T15:40:37.039Z,14.30
2022-09-24T15:43:22.528Z,14.09
2022-09-24T15:45:55.388Z,14.04
2022-09-24T15:48:27.680Z,14.11
2022-09-24T15:51:09.052Z,14.16
2022-09-24T15:53:42.709Z,14.15
2022-09-24T15:56:15.548Z,14.11
2022-09-24T15:58:47.995Z,14.05
2022-09-24T16:01:21.006Z,13.99
2022-09-24T16:03:54.630Z,13.93
2022-09-24T16:06:27.070Z,13.91
2022-09-24T16:08:59.170Z,13.77
2022-09-24T16:11:31.417Z,13.68
2022-09-24T16:14:03.719Z,13.56
2022-09-24T16:16:36.170Z,13.45
2022-09-24T16:19:11.478Z,13.36
2022-09-24T16:21:43.825Z,13.25
2022-09-24T16:24:16.090Z,13.16
2022-09-24T16:26:48.349Z,13.02
2022-09-24T16:29:20.940Z,12.90
2022-09-24T16:31:53.202Z,12.77
2022-09-24T16:34:25.838Z,12.70
2022-09-24T16:36:58.499Z,12.62
2022-09-24T16:39:31.063Z,12.44
2022-09-24T16:42:04.039Z,12.33
2022-09-24T16:44:36.533Z,12.28
2022-09-24T16:47:10.008Z,12.18
2022-09-24T16:49:40.680Z,12.11
2022-09-24T16:52:13.538Z,11.96
2022-09-24T16:54:46.321Z,11.97
2022-09-24T16:57:19.611Z,12.00
2022-09-24T16:59:51.931Z,11.96
2022-09-24T17:02:24.358Z,11.93
2022-09-24T17:04:59.563Z,11.94
2022-09-24T17:07:34.612Z,11.91
2022-09-24T17:10:18.391Z,11.89
2022-09-24T17:12:52.980Z,11.84
2022-09-24T17:15:25.201Z,11.78
2022-09-24T17:17:57.420Z,11.71
2022-09-24T17:20:30.052Z,11.74
2022-09-24T17:23:02.471Z,11.73
2022-09-24T17:25:34.736Z,11.69
2022-09-24T17:28:07.450Z,11.65
2022-09-24T17:30:40.290Z,11.57
2022-09-24T17:33:39.035Z,11.56
2022-09-24T17:36:07.231Z,11.51
2022-09-24T17:38:40.272Z,11.49
2022-09-24T17:41:14.849Z,11.46
2022-09-24T17:43:48.380Z,11.45
2022-09-24T17:46:22.991Z,11.44
2022-09-24T17:48:57.029Z,11.39
2022-09-24T17:51:33.104Z,11.39
2022-09-24T17:54:09.319Z,11.36
2022-09-24T17:56:43.453Z,11.30
2022-09-24T17:59:17.445Z,11.18
2022-09-24T18:01:51.717Z,11.16
2022-09-24T18:04:25.987Z,11.04
2022-09-24T18:06:59.252Z,10.96
2022-09-24T18:09:35.189Z,10.85
2022-09-24T18:12:16.892Z,10.77
2022-09-24T18:14:50.831Z,10.75
2022-09-24T18:17:24.052Z,10.76
2022-09-24T18:19:56.641Z,10.75
2022-09-24T18:22:29.859Z,10.72
2022-09-24T18:25:06.889Z,10.60
2022-09-24T18:27:41.124Z,10.53
2022-09-24T18:30:18.636Z,10.50
2022-09-24T18:32:56.250Z,10.41
2022-09-24T18:35:28.744Z,10.32
2022-09-24T18:38:02.018Z,10.22
2022-09-24T18:40:35.944Z,10.13
2022-09-24T18:43:08.889Z,10.11
2022-09-24T18:45:41.552Z,10.10
2022-09-24T18:48:13.828Z,10.08
2022-09-24T18:50:47.542Z,9.97
2022-09-24T18:53:19.841Z,9.89
2022-09-24T18:55:51.981Z,9.80
2022-09-24T18:58:24.291Z,9.74
2022-09-24T19:01:02.207Z,9.78
2022-09-24T19:03:34.640Z,9.76
2022-09-24T19:06:10.667Z,9.77
2022-09-24T19:08:44.280Z,9.73
2022-09-24T19:11:17.751Z,9.66
2022-09-24T19:13:54.149Z,9.59
2022-09-24T19:16:27.564Z,9.59
2022-09-24T19:19:00.270Z,9.57
2022-09-24T19:21:32.450Z,9.63
2022-09-24T19:24:09.654Z,9.58
2022-09-24T19:26:42.455Z,9.52
2022-09-24T19:29:18.686Z,9.50
2022-09-24T19:31:52.528Z,9.52
2022-09-24T19:34:24.591Z,9.55
2022-09-24T19:36:56.978Z,9.57
2022-09-24T19:39:29.318Z,9.56
2022-09-24T19:42:01.558Z,9.52
2022-09-24T19:44:33.890Z,9.49
2022-09-24T19:47:06.729Z,9.51
2022-09-24T19:49:38.997Z,9.52
2022-09-24T19:52:11.089Z,9.53
2022-09-24T19:54:44.839Z,9.53
2022-09-24T19:57:16.988Z,9.53
2022-09-24T19:59:49.668Z,9.53
2022-09-24T20:02:21.888Z,9.54
2022-09-24T20:04:54.239Z,9.55
2022-09-24T20:07:26.721Z,9.54
2022-09-24T20:09:58.920Z,9.52
2022-09-24T20:12:32.757Z,9.52
2022-09-24T20:15:07.269Z,9.53
2022-09-24T20:17:40.067Z,9.52
2022-09-24T20:20:12.708Z,9.51
2022-09-24T20:22:45.028Z,9.47
2022-09-24T20:25:17.649Z,9.48
2022-09-24T20:27:52.650Z,9.51
2022-09-24T20:30:25.021Z,9.48
2022-09-24T20:32:58.061Z,9.50
2022-09-24T20:35:30.278Z,9.48
2022-09-24T20:38:02.680Z,9.47
2022-09-24T20:40:36.696Z,9.49
2022-09-24T20:43:09.877Z,9.54
2022-09-24T20:45:44.180Z,9.59
2022-09-24T20:48:16.652Z,9.67
2022-09-24T20:50:48.869Z,9.76
2022-09-24T20:53:21.148Z,9.84
2022-09-24T20:55:55.920Z,9.91
2022-09-24T20:58:28.370Z,9.94
2022-09-24T21:01:00.972Z,9.99
2022-09-24T21:03:44.861Z,9.99
2022-09-24T21:06:18.303Z,10.01
2022-09-24T21:08:51.019Z,9.98
2022-09-24T21:11:26.748Z,9.99
2022-09-24T21:14:03.240Z,9.98
2022-09-24T21:16:36.450Z,9.98
2022-09-24T21:19:09.548Z,9.95
2022-09-24T21:21:42.242Z,9.80
2022-09-24T21:24:18.482Z,9.77
2022-09-24T21:26:51.401Z,9.75
2022-09-24T21:29:23.610Z,9.74
2022-09-24T21:31:55.849Z,9.73
2022-09-24T21:34:30.290Z,9.70
2022-09-24T21:37:02.559Z,9.64
2022-09-24T21:39:35.249Z,9.61
2022-09-24T21:42:07.920Z,9.54
2022-09-24T21:44:41.892Z,9.48
2022-09-24T21:47:14.160Z,9.41
2022-09-24T21:49:48.269Z,9.37
2022-09-24T21:52:20.458Z,9.31
2022-09-24T21:54:52.771Z,9.28
2022-09-24T21:57:25.021Z,9.23
2022-09-24T22:00:10.514Z,9.16
2022-09-24T22:02:43.726Z,9.10
2022-09-24T22:05:20.170Z,9.02
2022-09-24T22:07:52.408Z,8.94
2022-09-24T22:10:24.554Z,8.89
2022-09-24T22:12:56.711Z,8.83
2022-09-24T22:15:28.988Z,8.77
2022-09-24T22:18:01.553Z,8.72
2022-09-24T22:20:33.961Z,8.70
2022-09-24T22:23:06.139Z,8.65
2022-09-24T22:25:41.290Z,8.66
2022-09-24T22:28:18.560Z,8.66
2022-09-24T22:30:53.234Z,8.65
2022-09-24T22:33:44.570Z,8.62
2022-09-24T22:36:17.048Z,8.59
2022-09-24T22:38:49.735Z,8.55
2022-09-24T22:41:21.827Z,8.53
2022-09-24T22:43:54.308Z,8.45
2022-09-24T22:46:27.666Z,8.41
2022-09-24T22:49:00.430Z,8.33
2022-09-24T22:51:32.939Z,8.30
2022-09-24T22:54:05.514Z,8.30
2022-09-24T22:56:39.320Z,8.29
2022-09-24T22:59:11.659Z,8.27
2022-09-24T23:01:45.519Z,8.26
2022-09-24T23:04:18.688Z,8.26
2022-09-24T23:06:51.472Z,8.24
2022-09-24T23:09:23.737Z,8.20
2022-09-24T23:11:56.860Z,8.13
2022-09-24T23:14:29.280Z,8.15
2022-09-24T23:17:01.563Z,8.16
2022-09-24T23:19:48.068Z,8.18
2022-09-24T23:22:21.682Z,8.17
2022-09-24T23:24:53.800Z,8.16
2022-09-24T23:27:26.079Z,8.14
2022-09-24T23:30:00.849Z,8.09
2022-09-24T23:32:33.251Z,8.07
2022-09-24T23:35:05.780Z,8.05
2022-09-24T23:37:38.009Z,8.04
2022-09-24T23:40:12.366Z,8.04
2022-09-24T23:42:44.519Z,8.03
2022-09-24T23:45:19.280Z,8.03
2022-09-24T23:47:52.015Z,8.01
2022-09-24T23:50:24.850Z,8.03
2022-09-24T23:53:02.707Z,8.02
2022-09-24T23:55:35.528Z,8.00
2022-09-24T23:58:08.201Z,7.92
